Portland, ND

8:54 PM CST on November 25, 2014 (GMT -0600)
Grand Forks International | Change Station
CLOSE
Current Station
Airport
Location: Grand Forks,
Elevation: 843 ft
Nearby Weather Stations
Active Advisory: Special Statement

Elev 843 ft 47.95 °N, 97.18 °W | Updated 29 minutes ago

Snow
Snow
18 °F
Feels Like 3 °F
N
15
Wind Variable Wind from North

Today
High -- | Low -- °F
--% Chance of Precip.
Yesterday
High -- | Low -- °F
Precip. -- in
7:48 AM 4:44 PM
Waxing Crescent, 16% visible
Pressure 30.05 in
Visibility 2.5 miles
Clouds Overcast 3000 ft
Windchill 3 °F
Dew Point 12 °F
Humidity 79%
Rainfall 0.01 in
Snow Depth Not available.
UV 0 out of 12
Pollen .10 out of 12
Air Quality Not available.
Flu Activity Not available.
SPECI KGFK 260225Z 36013KT 2 1/2SM -SN BR OVC030 M08/M11 A3005 RMK AO2 P0000

More Conditions Fewer Conditions

Pressure 30.05 in
Visibility 2.5 miles
Clouds Overcast 3000 ft
Windchill 3 °F
Dew Point 12 °F
Humidity 79%
Rainfall 0.01 in
Snow Depth Not available.
UV 0 out of 12
Pollen .10 out of 12
Air Quality Not available.
Flu Activity Not available.
SPECI KGFK 260225Z 36013KT 2 1/2SM -SN BR OVC030 M08/M11 A3005 RMK AO2 P0000

More Conditions Fewer Conditions

10-Day Weather Forecast

Almanac

Astronomy

Nov. 25, 2014 Rise Set
Actual Time
Civil Twilight
Nautical Twilight
Astronomical Twilight
Moon
Length of Visible Light
Length of Day
Tomorrow will be .
, % of the Moon is Illuminated

Today's Extremes

State Highs State Lows

Community

WunderPhotos

Upload Photos

1,773,659 photos uploaded!

WunderBlogs® & News

Nearby

Air Quality

  Air Quality AQ Index Pollutant
Not available.

Snow Depth

Station Depth Elevation

Earthquake Activity

City Distance Mag. Time & Date
Minimum magnitude displayed is 2.5.

Coastal Water Temperatures

Place Temperature

Nearby Weather Stations